Time;durP1;ratioP1;P1;durP2;ratioP2;P2;SDS_P1;SDS_P2;PMS_P1;PMS_P2;Temp;Humidity;BMP_temperature;BMP_pressure;BME280_temperature;BME280_humidity;BME280_pressure;Samples;Min_cycle;Max_cycle;Signal;HPM_P1;HPM_P2
2023/08/06 00:00:49;;;;;;;1.67;1.50;;;15.60;99.90;;;;;;5069048;28;20292;-84
2023/08/06 00:03:14;;;;;;;2.13;1.23;;;15.70;99.90;;;;;;5064684;28;20070;-85
2023/08/06 00:05:43;;;;;;;2.92;1.70;;;15.70;99.90;;;;;;5065663;28;20028;-86
2023/08/06 00:08:09;;;;;;;2.22;1.90;;;15.70;99.90;;;;;;5068109;28;20027;-85
2023/08/06 00:10:39;;;;;;;9.35;2.10;;;15.80;99.90;;;;;;5068826;28;20024;-86
2023/08/06 00:13:04;;;;;;;2.35;1.90;;;15.70;99.90;;;;;;5066889;28;20029;-86
2023/08/06 00:15:33;;;;;;;5.82;1.63;;;15.60;99.90;;;;;;5068971;28;20046;-86
2023/08/06 00:17:58;;;;;;;3.85;1.58;;;15.60;99.90;;;;;;5064825;28;20167;-86
2023/08/06 00:20:24;;;;;;;3.83;2.05;;;15.60;99.90;;;;;;5069804;28;20123;-87
2023/08/06 00:22:50;;;;;;;2.70;1.92;;;15.60;99.90;;;;;;5067743;28;20043;-87
2023/08/06 00:25:15;;;;;;;3.28;1.73;;;15.70;99.90;;;;;;5067603;28;20036;-87
2023/08/06 00:27:41;;;;;;;2.80;1.30;;;15.60;99.90;;;;;;5065421;28;20029;-88
2023/08/06 00:30:07;;;;;;;1.77;1.50;;;15.70;99.90;;;;;;5065776;28;20062;-87
2023/08/06 00:32:36;;;;;;;3.15;1.70;;;15.70;99.90;;;;;;5068755;28;20371;-88
2023/08/06 00:35:04;;;;;;;3.00;1.95;;;15.70;99.90;;;;;;5068357;28;20081;-86
2023/08/06 00:37:30;;;;;;;2.42;1.50;;;15.70;99.90;;;;;;5063935;28;20024;-87
2023/08/06 00:39:56;;;;;;;3.50;1.67;;;15.70;99.90;;;;;;5066560;28;20405;-88
2023/08/06 00:42:22;;;;;;;2.15;1.67;;;15.70;99.90;;;;;;5060150;28;20040;-88
2023/08/06 00:44:48;;;;;;;2.38;1.40;;;15.70;99.90;;;;;;5068861;28;20039;-88
2023/08/06 00:47:14;;;;;;;2.60;2.13;;;15.60;99.90;;;;;;5064483;28;20032;-88
2023/08/06 00:49:40;;;;;;;3.78;1.70;;;15.60;99.90;;;;;;5066729;28;20178;-88
2023/08/06 00:52:06;;;;;;;1.85;1.35;;;15.60;99.90;;;;;;5064966;28;20025;-88
2023/08/06 00:54:34;;;;;;;1.73;1.63;;;15.60;99.90;;;;;;5066744;28;20025;-88
2023/08/06 00:57:01;;;;;;;1.38;1.25;;;15.60;99.90;;;;;;5065837;28;20039;-87
2023/08/06 00:59:28;;;;;;;1.77;1.42;;;15.60;99.90;;;;;;5066566;28;20039;-87
2023/08/06 01:01:54;;;;;;;2.08;1.23;;;15.60;99.90;;;;;;5064254;28;20044;-87
2023/08/06 01:04:19;;;;;;;4.13;1.33;;;15.60;99.90;;;;;;5064630;28;20039;-88
2023/08/06 01:07:13;;;;;;;3.33;1.70;;;15.60;99.90;;;;;;5066328;28;20036;-87
2023/08/06 01:09:54;;;;;;;3.15;1.80;;;15.60;99.90;;;;;;5063243;28;20043;-87
2023/08/06 01:12:41;;;;;;;1.73;1.60;;;15.60;99.90;;;;;;5064687;28;20498;-87
2023/08/06 01:15:13;;;;;;;1.83;1.42;;;15.50;99.90;;;;;;5063830;28;20036;-86
2023/08/06 01:17:40;;;;;;;3.85;1.80;;;15.50;99.90;;;;;;5065949;28;20504;-86
2023/08/06 01:20:06;;;;;;;1.67;1.42;;;15.40;99.90;;;;;;5065353;28;20033;-86
2023/08/06 01:22:32;;;;;;;2.17;1.55;;;15.40;99.90;;;;;;5063511;28;20528;-85
2023/08/06 01:24:57;;;;;;;2.70;1.50;;;15.40;99.90;;;;;;5068054;28;20028;-86
2023/08/06 01:27:42;;;;;;;2.42;1.83;;;15.30;99.90;;;;;;5066896;28;20029;-86
2023/08/06 01:30:27;;;;;;;2.50;1.60;;;15.30;99.90;;;;;;5058428;28;20098;-85
2023/08/06 01:33:00;;;;;;;1.63;1.50;;;15.30;99.90;;;;;;5067666;28;20098;-84
2023/08/06 01:35:28;;;;;;;1.48;1.38;;;15.30;99.90;;;;;;5061455;28;20497;-85
2023/08/06 01:37:56;;;;;;;1.63;1.50;;;15.20;99.90;;;;;;5064829;28;20066;-86
2023/08/06 01:40:21;;;;;;;1.30;1.20;;;15.30;99.90;;;;;;5067655;28;20409;-86
2023/08/06 01:42:47;;;;;;;1.17;1.17;;;15.30;99.90;;;;;;5064570;28;20087;-85
2023/08/06 01:45:13;;;;;;;1.50;1.40;;;15.40;99.90;;;;;;5060698;28;20107;-85
2023/08/06 01:47:39;;;;;;;1.85;1.30;;;15.30;99.90;;;;;;5062209;28;20037;-86
2023/08/06 01:50:05;;;;;;;1.27;1.17;;;15.40;99.90;;;;;;5064083;28;20436;-85
2023/08/06 01:52:31;;;;;;;1.63;1.42;;;15.40;99.90;;;;;;5059204;28;20137;-85
2023/08/06 01:54:56;;;;;;;1.65;1.38;;;15.40;99.90;;;;;;5057619;28;20025;-86
2023/08/06 01:57:22;;;;;;;1.50;1.35;;;15.30;99.90;;;;;;5060264;28;20032;-85
2023/08/06 01:59:48;;;;;;;2.78;1.20;;;15.30;99.90;;;;;;5067187;28;20079;-84
2023/08/06 02:02:13;;;;;;;1.85;1.20;;;15.30;99.90;;;;;;5065443;28;20504;-86
2023/08/06 02:04:39;;;;;;;1.30;1.20;;;15.30;99.90;;;;;;5067373;28;20127;-85
2023/08/06 02:07:05;;;;;;;2.95;1.80;;;15.30;99.90;;;;;;5066032;28;20047;-85
2023/08/06 02:09:30;;;;;;;5.50;1.73;;;15.30;99.90;;;;;;5065605;28;20017;-85
2023/08/06 02:11:56;;;;;;;3.05;1.48;;;15.30;99.90;;;;;;5064930;28;20035;-85
2023/08/06 02:14:22;;;;;;;7.22;1.50;;;15.40;99.90;;;;;;5067295;28;20051;-85
2023/08/06 02:16:47;;;;;;;2.00;1.58;;;15.40;99.90;;;;;;5064827;28;20330;-85
2023/08/06 02:19:13;;;;;;;2.00;1.40;;;15.40;99.90;;;;;;5064215;28;20024;-85
2023/08/06 02:21:38;;;;;;;7.43;1.88;;;15.40;99.90;;;;;;5061616;28;20041;-85
2023/08/06 02:24:04;;;;;;;1.73;1.60;;;15.30;99.90;;;;;;5057437;28;20134;-85
2023/08/06 02:26:30;;;;;;;1.70;1.60;;;15.20;99.90;;;;;;5066257;28;20032;-85
2023/08/06 02:28:55;;;;;;;1.63;1.42;;;15.20;99.90;;;;;;5060266;28;20106;-85
2023/08/06 02:31:21;;;;;;;1.38;1.27;;;15.10;99.90;;;;;;5055556;28;20466;-85
2023/08/06 02:33:46;;;;;;;2.15;1.60;;;15.20;99.90;;;;;;5059775;28;20044;-85
2023/08/06 02:36:12;;;;;;;1.33;1.30;;;15.10;99.90;;;;;;5066778;28;20058;-86
2023/08/06 02:38:39;;;;;;;6.45;2.10;;;15.10;99.90;;;;;;5065961;28;20115;-85
2023/08/06 02:41:05;;;;;;;3.88;1.55;;;15.10;99.90;;;;;;5055812;28;20102;-85
2023/08/06 02:43:31;;;;;;;1.23;1.17;;;15.10;99.90;;;;;;5066929;28;20028;-85
2023/08/06 02:45:58;;;;;;;1.80;1.50;;;15.20;99.90;;;;;;5066606;28;20028;-86
2023/08/06 02:48:23;;;;;;;1.55;1.45;;;15.20;99.90;;;;;;5064119;28;20531;-84
2023/08/06 02:50:49;;;;;;;1.80;1.70;;;15.20;99.90;;;;;;5062387;28;20032;-85
2023/08/06 02:53:14;;;;;;;2.17;1.80;;;15.20;99.90;;;;;;5048216;28;20099;-85
2023/08/06 02:55:46;;;;;;;2.08;1.88;;;15.20;99.90;;;;;;5053012;28;20440;-85
2023/08/06 02:58:12;;;;;;;2.22;2.03;;;15.20;99.90;;;;;;5065852;28;20036;-85
2023/08/06 03:00:37;;;;;;;2.97;1.80;;;15.30;99.90;;;;;;5065800;28;20043;-85
2023/08/06 03:03:04;;;;;;;4.53;1.88;;;15.20;99.90;;;;;;5065793;28;20093;-83
2023/08/06 03:05:29;;;;;;;3.58;1.88;;;15.30;99.90;;;;;;5053602;28;20485;-85
2023/08/06 03:07:55;;;;;;;4.28;2.80;;;15.30;99.90;;;;;;5065515;28;20107;-85
2023/08/06 03:10:20;;;;;;;2.75;2.25;;;15.30;99.90;;;;;;5058737;28;20055;-85
2023/08/06 03:12:46;;;;;;;2.10;1.90;;;15.30;99.90;;;;;;5062469;28;20062;-85
2023/08/06 03:15:13;;;;;;;3.53;1.95;;;15.20;99.90;;;;;;5065067;28;20039;-85
2023/08/06 03:17:38;;;;;;;2.08;1.75;;;15.30;99.90;;;;;;5067889;28;20031;-85
2023/08/06 03:20:04;;;;;;;2.70;1.95;;;15.30;99.90;;;;;;5063138;28;20032;-85
2023/08/06 03:22:30;;;;;;;2.45;1.83;;;15.30;99.90;;;;;;5062622;28;20170;-84
2023/08/06 03:24:56;;;;;;;2.28;2.00;;;15.30;99.90;;;;;;5068938;28;20111;-85
2023/08/06 03:27:26;;;;;;;1.85;1.45;;;15.20;99.90;;;;;;5067259;28;20051;-84
2023/08/06 03:29:55;;;;;;;1.50;1.40;;;15.30;99.90;;;;;;5075383;28;20496;-85
2023/08/06 03:32:21;;;;;;;2.35;1.73;;;15.30;99.90;;;;;;5070086;28;20534;-85
2023/08/06 03:34:46;;;;;;;2.58;2.38;;;15.20;99.90;;;;;;5069692;28;20120;-84
2023/08/06 03:37:12;;;;;;;5.78;2.30;;;15.30;99.90;;;;;;5071921;28;20137;-88
2023/08/06 03:39:38;;;;;;;3.35;2.00;;;15.30;99.90;;;;;;5069847;28;20040;-84
2023/08/06 03:42:04;;;;;;;6.18;1.92;;;15.30;99.90;;;;;;5063890;28;20041;-85
2023/08/06 03:44:30;;;;;;;1.98;1.75;;;15.30;99.90;;;;;;5069582;28;20178;-85
2023/08/06 03:46:56;;;;;;;2.10;1.90;;;15.30;99.90;;;;;;5069122;28;20040;-84
2023/08/06 03:49:21;;;;;;;2.05;1.52;;;15.30;99.90;;;;;;5070162;28;20043;-85
2023/08/06 03:51:47;;;;;;;1.77;1.27;;;15.20;99.90;;;;;;5069780;28;20017;-85
2023/08/06 03:54:13;;;;;;;1.30;1.20;;;15.20;99.90;;;;;;5061539;28;20025;-84
2023/08/06 03:56:38;;;;;;;1.40;1.30;;;15.20;99.90;;;;;;5067376;28;20523;-84
2023/08/06 03:59:04;;;;;;;1.08;1.05;;;15.30;99.90;;;;;;5069314;28;20557;-84
2023/08/06 04:01:29;;;;;;;1.30;1.23;;;15.20;99.90;;;;;;5067918;28;20037;-85
2023/08/06 04:03:55;;;;;;;1.40;1.30;;;15.20;99.90;;;;;;5069304;28;20107;-85
2023/08/06 04:06:20;;;;;;;3.65;0.93;;;15.20;99.90;;;;;;5053453;28;20029;-84
2023/08/06 04:08:46;;;;;;;4.07;1.30;;;15.20;99.90;;;;;;5061529;28;20016;-84
2023/08/06 04:11:13;;;;;;;1.40;1.30;;;15.10;99.90;;;;;;5065924;28;20473;-85
2023/08/06 04:13:38;;;;;;;1.90;1.60;;;15.10;99.90;;;;;;5063003;28;20056;-84
2023/08/06 04:16:05;;;;;;;6.50;1.85;;;15.00;99.90;;;;;;5065780;28;20438;-84
2023/08/06 04:18:30;;;;;;;1.52;1.42;;;15.00;99.90;;;;;;5068378;28;20036;-85
2023/08/06 04:20:57;;;;;;;2.15;1.65;;;15.00;99.90;;;;;;5062626;28;20040;-85
2023/08/06 04:23:23;;;;;;;4.72;1.88;;;15.00;99.90;;;;;;5062337;28;20086;-86
2023/08/06 04:25:49;;;;;;;1.58;1.48;;;14.90;99.90;;;;;;5061918;28;20044;-85
2023/08/06 04:28:14;;;;;;;1.77;1.67;;;14.90;99.90;;;;;;5064685;28;20111;-85
2023/08/06 04:30:40;;;;;;;1.58;1.20;;;14.90;99.90;;;;;;5068465;28;20024;-85
2023/08/06 04:33:05;;;;;;;1.08;1.08;;;14.90;99.90;;;;;;5061252;28;20116;-86
2023/08/06 04:35:31;;;;;;;1.75;1.33;;;14.90;99.90;;;;;;5069093;28;20044;-85
2023/08/06 04:37:56;;;;;;;1.20;1.10;;;14.90;99.90;;;;;;5065900;28;20020;-85
2023/08/06 04:40:22;;;;;;;3.38;1.60;;;14.90;99.90;;;;;;5068570;28;20044;-86
2023/08/06 04:42:51;;;;;;;2.30;1.40;;;14.90;99.90;;;;;;5065245;28;20145;-85
2023/08/06 04:45:16;;;;;;;5.65;1.75;;;14.90;99.90;;;;;;5062037;28;20486;-86
2023/08/06 04:47:42;;;;;;;2.05;1.30;;;14.90;99.90;;;;;;5069331;28;20028;-86
2023/08/06 04:50:08;;;;;;;2.10;1.40;;;14.90;99.90;;;;;;5064637;28;20032;-85
2023/08/06 04:52:33;;;;;;;1.50;1.40;;;14.90;99.90;;;;;;5070467;28;20033;-85
2023/08/06 04:54:59;;;;;;;1.33;1.23;;;14.90;99.90;;;;;;5059486;28;20024;-86
2023/08/06 04:57:25;;;;;;;1.67;1.20;;;14.90;99.90;;;;;;5069967;28;20017;-85
2023/08/06 04:59:50;;;;;;;3.20;1.30;;;15.00;99.90;;;;;;5068915;28;20169;-85
2023/08/06 05:02:16;;;;;;;1.50;1.40;;;15.00;99.90;;;;;;5068127;28;20086;-86
2023/08/06 05:04:41;;;;;;;1.38;1.30;;;15.00;99.90;;;;;;5047805;28;20048;-85
2023/08/06 05:07:08;;;;;;;1.75;1.50;;;15.00;99.90;;;;;;5067507;28;20566;-85
2023/08/06 05:09:34;;;;;;;3.03;1.20;;;15.00;99.90;;;;;;5050533;28;20166;-86
2023/08/06 05:12:07;;;;;;;1.05;1.00;;;15.00;99.90;;;;;;5067126;28;20112;-86
2023/08/06 05:14:33;;;;;;;1.10;1.00;;;15.00;99.90;;;;;;5065246;28;20036;-85
2023/08/06 05:16:59;;;;;;;1.77;1.67;;;15.00;99.90;;;;;;5067315;28;20020;-86
2023/08/06 05:19:24;;;;;;;3.75;1.40;;;14.90;99.90;;;;;;5067592;28;20504;-86
2023/08/06 05:21:50;;;;;;;1.50;1.40;;;15.00;99.90;;;;;;5067580;28;20405;-85
2023/08/06 05:24:16;;;;;;;1.73;1.63;;;15.00;99.90;;;;;;5067619;28;20035;-85
2023/08/06 05:26:41;;;;;;;1.50;1.40;;;14.90;99.90;;;;;;5066686;28;20017;-85
2023/08/06 05:29:07;;;;;;;4.03;1.33;;;14.90;99.90;;;;;;5057571;28;20040;-85
2023/08/06 05:31:33;;;;;;;6.18;1.73;;;15.00;99.90;;;;;;5062305;28;20036;-85
2023/08/06 05:33:59;;;;;;;1.60;1.50;;;14.90;99.90;;;;;;5061326;28;20416;-85
2023/08/06 05:36:25;;;;;;;1.77;1.67;;;14.90;99.90;;;;;;5065703;28;20036;-85
2023/08/06 05:38:50;;;;;;;1.58;1.48;;;14.90;99.90;;;;;;5064276;28;20036;-85
2023/08/06 05:41:16;;;;;;;1.70;1.60;;;15.00;99.90;;;;;;5045729;28;20067;-85
2023/08/06 05:43:41;;;;;;;1.58;1.48;;;15.00;99.90;;;;;;5063164;28;20024;-85
2023/08/06 05:46:07;;;;;;;1.42;1.33;;;15.10;99.90;;;;;;5053196;28;20028;-85
2023/08/06 05:48:33;;;;;;;1.77;1.63;;;15.10;99.90;;;;;;5066596;28;20150;-85
2023/08/06 05:51:01;;;;;;;4.60;1.48;;;15.10;99.90;;;;;;5055941;28;20454;-85
2023/08/06 05:53:27;;;;;;;4.20;1.52;;;15.10;99.90;;;;;;5061159;28;20115;-86
2023/08/06 05:55:52;;;;;;;1.70;1.45;;;15.10;99.90;;;;;;5057125;28;20107;-85
2023/08/06 05:58:19;;;;;;;1.20;1.20;;;15.10;99.90;;;;;;5063656;28;20025;-86
2023/08/06 06:00:45;;;;;;;1.65;1.55;;;15.10;99.90;;;;;;5054776;28;20116;-85
2023/08/06 06:03:11;;;;;;;1.60;1.50;;;15.10;99.90;;;;;;5063983;28;20128;-85
2023/08/06 06:05:39;;;;;;;1.08;1.02;;;15.20;99.90;;;;;;5059298;28;20029;-85
2023/08/06 06:08:05;;;;;;;1.95;1.75;;;15.20;99.90;;;;;;5066429;28;20051;-85
2023/08/06 06:10:31;;;;;;;1.55;1.45;;;15.30;99.90;;;;;;5066154;28;20036;-85
2023/08/06 06:12:56;;;;;;;3.58;1.63;;;15.30;99.90;;;;;;5066680;28;20138;-86
2023/08/06 06:15:22;;;;;;;1.60;1.50;;;15.30;99.90;;;;;;5068363;28;20082;-85
2023/08/06 06:17:48;;;;;;;2.88;2.10;;;15.40;99.90;;;;;;5065285;28;20107;-86
2023/08/06 06:20:14;;;;;;;2.25;1.40;;;15.40;99.90;;;;;;5063540;28;20035;-86
2023/08/06 06:22:39;;;;;;;1.55;1.30;;;15.40;99.90;;;;;;5058967;28;20394;-85
2023/08/06 06:25:06;;;;;;;1.30;1.30;;;15.40;99.90;;;;;;5057259;28;20411;-86
2023/08/06 06:27:31;;;;;;;1.50;1.40;;;15.50;99.90;;;;;;5063460;28;20390;-86
2023/08/06 06:29:57;;;;;;;1.42;1.33;;;15.50;99.90;;;;;;5061872;28;20336;-86
2023/08/06 06:32:22;;;;;;;1.35;1.30;;;15.60;99.90;;;;;;5057307;28;20024;-86
2023/08/06 06:34:48;;;;;;;1.83;1.65;;;15.60;99.90;;;;;;5050880;28;20571;-86
2023/08/06 06:37:14;;;;;;;3.80;1.13;;;15.60;99.90;;;;;;5060742;28;20021;-86
2023/08/06 06:39:40;;;;;;;1.40;1.30;;;15.60;99.90;;;;;;5055124;28;20033;-85
2023/08/06 06:42:05;;;;;;;3.80;2.60;;;15.70;99.90;;;;;;5040514;28;20119;-85
2023/08/06 06:44:31;;;;;;;2.08;1.35;;;15.80;99.90;;;;;;5063618;28;20055;-86
2023/08/06 06:46:56;;;;;;;2.17;1.38;;;15.80;99.90;;;;;;5064694;28;20023;-86
2023/08/06 06:49:22;;;;;;;8.60;2.00;;;15.70;99.90;;;;;;5064608;28;20032;-86
2023/08/06 06:51:49;;;;;;;1.55;1.45;;;15.80;99.90;;;;;;5062789;28;20033;-85
2023/08/06 06:54:14;;;;;;;1.65;1.15;;;15.80;99.90;;;;;;5065259;28;20032;-85
2023/08/06 06:56:40;;;;;;;0.93;0.93;;;15.80;99.90;;;;;;5043077;28;20052;-86
2023/08/06 06:59:05;;;;;;;4.45;1.92;;;15.80;99.90;;;;;;5063845;28;20475;-85
2023/08/06 07:01:31;;;;;;;1.60;1.50;;;15.90;99.90;;;;;;5059281;28;20037;-86
2023/08/06 07:03:57;;;;;;;1.98;1.80;;;15.90;99.90;;;;;;5049170;28;20063;-86
2023/08/06 07:06:23;;;;;;;4.22;1.60;;;16.00;99.90;;;;;;5061387;28;20287;-86
2023/08/06 07:08:48;;;;;;;3.17;1.38;;;16.00;99.90;;;;;;5062982;28;20028;-86
2023/08/06 07:11:14;;;;;;;3.58;1.45;;;16.00;99.90;;;;;;5042437;28;20039;-85
2023/08/06 07:13:39;;;;;;;4.75;1.40;;;16.10;99.90;;;;;;5064576;28;20027;-85
2023/08/06 07:16:05;;;;;;;1.50;1.40;;;16.10;99.90;;;;;;5063111;28;20044;-85
2023/08/06 07:18:30;;;;;;;3.28;1.58;;;16.20;99.90;;;;;;5059773;28;20029;-86
2023/08/06 07:20:56;;;;;;;2.03;1.38;;;16.20;99.90;;;;;;5059437;28;20481;-86
2023/08/06 07:23:25;;;;;;;2.83;1.63;;;16.30;99.90;;;;;;5052398;28;20083;-86
2023/08/06 07:25:51;;;;;;;4.22;1.88;;;16.30;99.90;;;;;;5063883;28;20029;-85
2023/08/06 07:28:17;;;;;;;2.35;1.75;;;16.40;99.90;;;;;;5058195;28;20025;-85
2023/08/06 07:30:44;;;;;;;2.63;1.55;;;16.40;99.90;;;;;;5059945;28;20031;-85
2023/08/06 07:33:10;;;;;;;4.53;1.30;;;16.50;99.90;;;;;;5056499;28;20044;-85
2023/08/06 07:35:36;;;;;;;3.63;1.92;;;16.50;99.90;;;;;;5056775;28;20031;-86
2023/08/06 07:38:02;;;;;;;1.65;1.55;;;16.60;99.90;;;;;;5055226;28;20052;-85
2023/08/06 07:40:28;;;;;;;2.30;1.42;;;16.60;99.90;;;;;;5056575;28;20049;-85
2023/08/06 07:42:54;;;;;;;1.63;1.50;;;16.60;99.90;;;;;;5022895;28;20022;-85
2023/08/06 07:45:19;;;;;;;1.60;1.50;;;16.70;99.90;;;;;;5022713;28;20558;-84
2023/08/06 07:47:45;;;;;;;1.55;1.42;;;16.70;99.90;;;;;;5015264;28;20117;-85
2023/08/06 07:50:11;;;;;;;3.60;2.13;;;16.70;99.90;;;;;;5018306;28;20045;-85
2023/08/06 07:52:36;;;;;;;1.88;1.70;;;16.70;99.90;;;;;;5026454;28;20036;-85
2023/08/06 07:55:04;;;;;;;1.30;1.20;;;16.80;99.90;;;;;;5020411;28;20022;-85
2023/08/06 07:57:31;;;;;;;2.10;1.90;;;16.80;99.90;;;;;;5055561;28;20044;-85
2023/08/06 07:59:57;;;;;;;2.10;1.90;;;16.90;99.90;;;;;;5021718;28;20021;-86
2023/08/06 08:02:23;;;;;;;5.53;1.60;;;16.90;99.90;;;;;;5017942;28;20448;-86
2023/08/06 08:04:48;;;;;;;3.13;1.80;;;17.00;99.90;;;;;;5021274;28;20030;-85
2023/08/06 08:07:14;;;;;;;3.28;2.25;;;17.10;99.90;;;;;;5025034;28;20068;-86
2023/08/06 08:09:40;;;;;;;4.45;1.70;;;17.10;99.90;;;;;;5026884;28;20115;-86
2023/08/06 08:12:06;;;;;;;13.50;2.03;;;17.10;99.90;;;;;;5019049;28;20052;-86
2023/08/06 08:14:35;;;;;;;4.78;1.98;;;17.20;99.90;;;;;;5017577;28;20474;-85
2023/08/06 08:17:05;;;;;;;5.90;1.85;;;17.30;99.90;;;;;;5019951;28;20029;-86
2023/08/06 08:19:31;;;;;;;6.63;1.92;;;17.30;99.90;;;;;;5021385;28;20505;-86
2023/08/06 08:21:58;;;;;;;1.58;1.48;;;17.30;99.90;;;;;;5022805;28;20038;-85
2023/08/06 08:24:24;;;;;;;2.13;1.65;;;17.40;99.90;;;;;;5024376;28;20030;-85
2023/08/06 08:26:51;;;;;;;2.03;1.77;;;17.40;99.90;;;;;;5030586;28;20033;-85
2023/08/06 08:29:16;;;;;;;2.15;2.00;;;17.40;99.90;;;;;;5035650;28;20521;-86
2023/08/06 08:31:43;;;;;;;2.65;1.75;;;17.40;99.90;;;;;;5024482;28;20029;-86
2023/08/06 08:34:09;;;;;;;3.75;1.88;;;17.30;99.90;;;;;;5023199;28;20554;-86
2023/08/06 08:36:34;;;;;;;4.32;1.83;;;17.40;99.90;;;;;;5026759;28;20124;-87
2023/08/06 08:39:00;;;;;;;4.78;1.73;;;17.50;99.90;;;;;;5029652;28;20044;-86
2023/08/06 08:41:33;;;;;;;2.25;2.05;;;17.50;99.90;;;;;;5064121;28;20036;-86
2023/08/06 08:44:02;;;;;;;3.92;2.25;;;17.60;99.90;;;;;;5052032;28;20028;-86
2023/08/06 08:46:31;;;;;;;5.15;1.92;;;17.70;99.90;;;;;;5071073;28;20089;-86
2023/08/06 08:49:00;;;;;;;2.20;2.03;;;17.70;99.90;;;;;;5062636;28;20083;-86
2023/08/06 08:51:30;;;;;;;3.75;2.33;;;17.80;99.90;;;;;;5063634;28;20029;-87
2023/08/06 08:53:57;;;;;;;2.42;2.17;;;17.80;99.90;;;;;;5066665;28;20020;-85
2023/08/06 08:56:23;;;;;;;2.15;1.92;;;17.90;99.90;;;;;;5059608;28;20036;-86
2023/08/06 08:58:48;;;;;;;2.08;1.88;;;17.90;99.90;;;;;;5060081;28;20370;-86
2023/08/06 09:01:15;;;;;;;7.53;2.10;;;18.00;99.90;;;;;;5058941;28;20440;-85
2023/08/06 09:03:43;;;;;;;3.13;1.92;;;18.00;99.90;;;;;;5066380;28;20370;-86
2023/08/06 09:06:13;;;;;;;2.50;2.00;;;18.10;99.90;;;;;;5057434;28;20029;-84
2023/08/06 09:08:56;;;;;;;7.88;2.20;;;18.10;99.90;;;;;;5064219;28;20552;-85
2023/08/06 09:11:23;;;;;;;2.88;2.15;;;18.20;99.90;;;;;;5050281;28;20509;-84
2023/08/06 09:13:49;;;;;;;3.10;2.35;;;18.30;99.90;;;;;;5056223;28;20024;-85
2023/08/06 09:16:14;;;;;;;5.18;2.00;;;18.30;99.90;;;;;;5067252;28;20393;-86
2023/08/06 09:18:40;;;;;;;2.40;2.15;;;18.30;99.90;;;;;;5068528;28;20029;-85
2023/08/06 09:21:12;;;;;;;3.95;1.73;;;18.30;99.90;;;;;;5059502;28;20729;-86
2023/08/06 09:23:38;;;;;;;3.92;1.83;;;18.30;99.90;;;;;;5066682;28;20033;-86
2023/08/06 09:26:04;;;;;;;2.08;1.90;;;18.40;99.90;;;;;;5060468;28;20321;-86
2023/08/06 09:28:41;;;;;;;5.53;2.40;;;18.40;99.90;;;;;;5056924;28;20024;-86
2023/08/06 09:31:08;;;;;;;3.20;2.13;;;18.50;99.90;;;;;;5062101;28;20063;-86
2023/08/06 09:33:35;;;;;;;5.55;2.67;;;18.50;99.90;;;;;;5061004;28;20025;-85
2023/08/06 09:36:10;;;;;;;2.38;1.70;;;18.60;99.90;;;;;;5063594;28;20099;-87
2023/08/06 09:38:40;;;;;;;2.22;1.80;;;18.60;99.90;;;;;;5035884;28;20025;-85
2023/08/06 09:41:07;;;;;;;2.80;1.88;;;18.50;99.90;;;;;;5066089;28;20052;-87
2023/08/06 09:43:43;;;;;;;3.50;1.63;;;18.50;99.90;;;;;;5061787;28;20024;-86
2023/08/06 09:46:16;;;;;;;2.85;2.08;;;18.50;99.90;;;;;;5065046;28;20033;-88
2023/08/06 09:48:45;;;;;;;1.88;1.70;;;18.50;99.90;;;;;;5061621;28;20097;-86
2023/08/06 09:51:12;;;;;;;2.45;1.50;;;18.50;99.90;;;;;;5060496;28;20027;-86
2023/08/06 09:53:40;;;;;;;2.80;1.70;;;18.50;99.90;;;;;;5060389;28;20016;-87
2023/08/06 09:56:06;;;;;;;2.13;1.60;;;18.50;99.90;;;;;;5045170;28;20111;-86
2023/08/06 09:58:32;;;;;;;2.63;1.88;;;18.40;99.90;;;;;;5061042;28;20561;-88
2023/08/06 10:01:00;;;;;;;2.50;1.67;;;18.50;99.90;;;;;;5064722;28;20106;-85
2023/08/06 10:03:27;;;;;;;3.30;1.90;;;18.50;99.90;;;;;;5063490;28;20090;-88
2023/08/06 10:05:55;;;;;;;3.70;2.08;;;18.60;99.90;;;;;;5062185;28;20025;-87
2023/08/06 10:08:20;;;;;;;1.77;1.48;;;18.50;99.90;;;;;;5058130;28;20024;-86
2023/08/06 10:10:46;;;;;;;3.22;1.75;;;18.50;99.90;;;;;;5057579;28;20038;-87
2023/08/06 10:13:13;;;;;;;5.47;2.05;;;18.50;99.90;;;;;;5041352;28;20123;-87
2023/08/06 10:15:39;;;;;;;2.92;1.98;;;18.50;99.90;;;;;;5060124;28;20020;-86
2023/08/06 10:18:06;;;;;;;2.60;1.67;;;18.50;99.90;;;;;;5059866;28;20112;-87
2023/08/06 10:20:35;;;;;;;2.70;1.98;;;18.50;99.90;;;;;;5065118;28;20032;-86
2023/08/06 10:23:06;;;;;;;2.67;1.50;;;18.50;99.90;;;;;;5059668;28;20040;-85
2023/08/06 10:25:33;;;;;;;1.50;1.40;;;18.50;99.90;;;;;;5060725;28;20042;-86
2023/08/06 10:27:59;;;;;;;2.75;1.85;;;18.40;99.90;;;;;;5059192;28;20047;-86
2023/08/06 10:30:31;;;;;;;2.00;1.45;;;18.50;99.90;;;;;;5064051;28;20029;-86
2023/08/06 10:33:01;;;;;;;2.90;1.75;;;18.50;99.90;;;;;;5045739;28;20029;-85
2023/08/06 10:35:34;;;;;;;2.25;1.75;;;18.50;99.90;;;;;;5064129;28;20042;-86
2023/08/06 10:38:05;;;;;;;3.85;1.63;;;18.50;99.90;;;;;;5062097;28;20427;-85
2023/08/06 10:40:31;;;;;;;3.40;1.85;;;18.60;99.90;;;;;;5062677;28;20127;-85
2023/08/06 10:43:01;;;;;;;3.17;2.00;;;18.70;99.90;;;;;;5061732;28;20013;-87
2023/08/06 10:45:28;;;;;;;3.13;1.83;;;18.70;99.90;;;;;;5060962;28;20505;-87
2023/08/06 10:47:58;;;;;;;7.70;1.50;;;18.60;99.90;;;;;;5045523;28;20466;-84
2023/08/06 10:50:24;;;;;;;2.30;1.48;;;18.60;99.90;;;;;;5041296;28;20033;-86
2023/08/06 10:52:51;;;;;;;1.77;1.63;;;18.60;99.90;;;;;;5054500;28;20060;-86
2023/08/06 10:55:28;;;;;;;2.50;1.27;;;18.70;99.90;;;;;;5056007;28;20040;-86
2023/08/06 10:57:55;;;;;;;2.33;1.73;;;18.70;99.90;;;;;;5061839;28;20021;-86
2023/08/06 11:00:24;;;;;;;2.08;1.60;;;18.80;99.90;;;;;;5061997;28;20028;-85
2023/08/06 11:02:51;;;;;;;3.20;1.50;;;18.90;99.90;;;;;;5057260;28;20386;-85
2023/08/06 11:05:17;;;;;;;1.95;1.52;;;18.90;99.90;;;;;;5069736;28;20025;-85
2023/08/06 11:07:43;;;;;;;2.28;1.48;;;18.90;99.90;;;;;;5061682;28;20258;-86
2023/08/06 11:10:11;;;;;;;2.45;1.80;;;18.90;99.90;;;;;;5060828;28;20102;-85
2023/08/06 11:12:37;;;;;;;7.53;1.80;;;19.00;99.90;;;;;;5053171;28;20036;-85
2023/08/06 11:15:04;;;;;;;1.98;1.67;;;19.10;99.90;;;;;;5062088;28;20664;-85
2023/08/06 11:17:32;;;;;;;2.55;1.48;;;19.10;99.90;;;;;;5058271;28;20025;-85
2023/08/06 11:20:05;;;;;;;3.33;1.92;;;19.10;99.90;;;;;;5057873;28;20025;-85
2023/08/06 11:22:31;;;;;;;1.30;1.20;;;19.10;99.90;;;;;;5064594;28;20373;-85
2023/08/06 11:24:57;;;;;;;1.88;1.58;;;19.20;99.90;;;;;;5063006;28;20077;-85
2023/08/06 11:27:27;;;;;;;2.47;1.65;;;19.20;99.90;;;;;;5054066;28;20031;-84
2023/08/06 11:29:52;;;;;;;3.80;1.63;;;19.20;99.90;;;;;;5048707;28;20067;-85
2023/08/06 11:32:18;;;;;;;3.67;1.23;;;19.20;99.90;;;;;;5058103;28;20049;-85
2023/08/06 11:34:44;;;;;;;4.28;1.40;;;19.30;99.90;;;;;;5049341;28;20094;-87
2023/08/06 11:37:10;;;;;;;3.80;2.50;;;19.30;99.90;;;;;;5058610;28;20021;-86
2023/08/06 11:39:38;;;;;;;3.38;2.30;;;19.30;99.90;;;;;;5063766;28;20047;-86
2023/08/06 11:42:04;;;;;;;2.45;1.65;;;19.30;99.90;;;;;;5059137;28;20420;-86
2023/08/06 11:44:32;;;;;;;1.85;1.70;;;19.30;99.90;;;;;;5056389;28;20051;-86
2023/08/06 11:47:01;;;;;;;2.35;1.55;;;19.30;99.90;;;;;;5064396;28;20075;-86
2023/08/06 11:49:39;;;;;;;6.57;1.70;;;19.30;99.90;;;;;;5057584;28;20033;-86
2023/08/06 11:52:18;;;;;;;2.05;1.35;;;19.30;99.90;;;;;;5063689;28;20049;-86
2023/08/06 11:54:44;;;;;;;1.98;1.65;;;19.30;99.90;;;;;;5064698;28;20127;-86
2023/08/06 11:57:10;;;;;;;2.67;1.92;;;19.30;99.90;;;;;;5069859;28;20058;-85
2023/08/06 11:59:38;;;;;;;3.25;1.30;;;19.30;99.90;;;;;;5062094;28;20060;-85
2023/08/06 12:02:07;;;;;;;3.25;1.80;;;19.30;99.90;;;;;;5066397;28;20036;-86
2023/08/06 12:05:09;;;;;;;2.67;1.70;;;19.30;99.90;;;;;;5065972;28;20105;-86
2023/08/06 12:07:38;;;;;;;4.50;1.40;;;19.50;99.90;;;;;;5053684;28;20024;-85
2023/08/06 12:10:04;;;;;;;2.10;1.60;;;19.60;99.90;;;;;;5048706;28;20383;-86
2023/08/06 12:12:30;;;;;;;2.45;1.55;;;19.70;99.90;;;;;;5064209;28;20109;-85
2023/08/06 12:14:56;;;;;;;2.85;1.75;;;19.80;99.90;;;;;;5065605;28;20024;-84
2023/08/06 12:17:23;;;;;;;3.83;1.75;;;19.80;99.90;;;;;;5064876;28;20055;-85
2023/08/06 12:19:48;;;;;;;5.40;1.60;;;19.80;99.90;;;;;;5054687;28;20033;-85
2023/08/06 12:22:14;;;;;;;4.15;1.45;;;19.80;99.90;;;;;;5064539;28;20052;-86
2023/08/06 12:24:44;;;;;;;4.32;1.40;;;19.70;99.90;;;;;;5064369;28;20059;-84
2023/08/06 12:27:10;;;;;;;3.55;1.35;;;19.70;99.90;;;;;;5062652;28;20028;-86
2023/08/06 12:29:37;;;;;;;2.00;1.33;;;19.70;99.90;;;;;;5063373;28;20020;-85
2023/08/06 12:32:03;;;;;;;2.15;1.38;;;19.80;99.90;;;;;;5064403;28;20396;-83
2023/08/06 12:34:29;;;;;;;3.58;1.63;;;19.90;99.90;;;;;;5066623;28;20037;-86
2023/08/06 12:36:54;;;;;;;3.95;1.67;;;20.00;99.90;;;;;;5066449;28;20033;-87
2023/08/06 12:39:20;;;;;;;1.70;1.48;;;20.20;99.90;;;;;;5066907;28;20171;-86
2023/08/06 12:41:46;;;;;;;1.95;1.58;;;20.30;99.90;;;;;;5062751;28;20060;-84
2023/08/06 12:44:12;;;;;;;1.85;1.48;;;20.40;99.90;;;;;;5060757;28;20370;-87
2023/08/06 12:46:38;;;;;;;5.47;2.10;;;20.60;99.90;;;;;;5059014;28;20031;-86